Time;durP1;ratioP1;P1;durP2;ratioP2;P2;SDS_P1;SDS_P2;PMS_P1;PMS_P2;Temp;Humidity;BMP_temperature;BMP_pressure;BME280_temperature;BME280_humidity;BME280_pressure;Samples;Min_cycle;Max_cycle;Signal;HPM_P1;HPM_P2
2021/09/05 00:00:46;;;;;;;7.22;4.70;;;27.60;99.90;;;;;;4032455;29;20190;-66
2021/09/05 00:02:53;;;;;;;8.85;5.25;;;27.60;99.90;;;;;;4032617;29;20045;-66
2021/09/05 00:04:58;;;;;;;5.20;4.00;;;27.70;99.90;;;;;;4032678;29;20049;-66
2021/09/05 00:07:03;;;;;;;5.60;3.80;;;27.70;99.90;;;;;;4032413;29;20068;-66
2021/09/05 00:09:21;;;;;;;5.05;4.30;;;27.70;99.90;;;;;;3986925;29;20046;-66
2021/09/05 00:11:28;;;;;;;9.00;3.88;;;27.70;99.90;;;;;;3994501;29;20061;-66
2021/09/05 00:13:33;;;;;;;6.75;3.15;;;27.70;99.90;;;;;;3980601;29;20051;-66
2021/09/05 00:15:37;;;;;;;4.45;2.60;;;27.70;99.90;;;;;;3985583;29;20485;-65
2021/09/05 00:17:45;;;;;;;4.43;2.28;;;27.70;99.90;;;;;;3988859;29;20073;-66
2021/09/05 00:19:49;;;;;;;4.72;3.03;;;27.60;99.90;;;;;;4000574;29;20054;-67
2021/09/05 00:21:54;;;;;;;5.15;2.22;;;27.70;99.90;;;;;;3987002;29;20066;-67
2021/09/05 00:23:59;;;;;;;3.50;2.50;;;27.80;99.90;;;;;;3999652;29;20486;-67
2021/09/05 00:26:08;;;;;;;5.25;2.60;;;27.80;99.90;;;;;;4008134;29;21499;-67
2021/09/05 00:28:14;;;;;;;4.60;2.55;;;27.80;99.90;;;;;;4005883;29;20073;-67
2021/09/05 00:30:21;;;;;;;5.35;2.80;;;27.80;99.90;;;;;;4008423;29;20178;-67
2021/09/05 00:32:35;;;;;;;7.00;4.22;;;27.90;99.90;;;;;;4008555;29;20057;-67
2021/09/05 00:34:40;;;;;;;10.95;6.72;;;27.90;99.90;;;;;;4057899;29;20064;-67
2021/09/05 00:36:51;;;;;;;11.90;8.40;;;27.90;99.90;;;;;;4062932;29;20579;-67
2021/09/05 00:38:58;;;;;;;8.77;5.43;;;27.90;99.90;;;;;;4063033;29;20543;-67
2021/09/05 00:41:05;;;;;;;6.43;4.18;;;27.90;99.90;;;;;;4062545;29;20284;-67
2021/09/05 00:43:32;;;;;;;6.75;4.95;;;27.90;99.90;;;;;;4047108;29;20080;-66
2021/09/05 00:45:37;;;;;;;7.97;3.63;;;27.90;99.90;;;;;;4045842;29;20060;-67
2021/09/05 00:48:00;;;;;;;4.63;2.63;;;28.00;99.90;;;;;;4073685;29;20040;-67
2021/09/05 00:50:08;;;;;;;4.53;2.20;;;28.00;99.90;;;;;;4077440;29;20111;-67
2021/09/05 00:52:12;;;;;;;3.85;2.10;;;28.00;99.90;;;;;;4077202;29;20672;-67
2021/09/05 00:54:21;;;;;;;4.82;2.22;;;28.00;99.90;;;;;;4075709;29;20051;-67
2021/09/05 00:56:49;;;;;;;9.20;2.22;;;28.00;99.90;;;;;;4061719;29;20055;-67
2021/09/05 00:59:11;;;;;;;4.97;2.42;;;28.00;99.90;;;;;;4076141;29;20051;-67
2021/09/05 01:01:18;;;;;;;4.55;1.90;;;28.10;99.90;;;;;;4075684;29;20566;-67
2021/09/05 01:03:24;;;;;;;5.15;1.70;;;28.10;99.90;;;;;;4068263;28;20056;-67
2021/09/05 01:05:33;;;;;;;6.68;1.83;;;28.10;99.90;;;;;;4140836;28;20048;-66
2021/09/05 01:07:47;;;;;;;5.88;1.45;;;28.10;99.90;;;;;;4141021;28;20041;-67
2021/09/05 01:10:01;;;;;;;3.28;1.50;;;28.20;99.90;;;;;;4142907;28;20050;-66
2021/09/05 01:12:07;;;;;;;4.43;1.80;;;28.10;99.90;;;;;;4144561;28;20120;-66
2021/09/05 01:14:12;;;;;;;2.25;1.38;;;28.10;99.90;;;;;;4146927;28;20157;-66
2021/09/05 01:16:30;;;;;;;4.80;1.50;;;28.10;99.90;;;;;;4143754;28;20136;-66
2021/09/05 01:18:54;;;;;;;6.15;1.65;;;28.10;99.90;;;;;;4159136;28;20045;-66
2021/09/05 01:21:19;;;;;;;5.28;1.80;;;28.10;99.90;;;;;;4161059;28;20099;-66
2021/09/05 01:23:43;;;;;;;2.90;1.50;;;28.20;99.90;;;;;;4161680;28;20050;-66
2021/09/05 01:26:07;;;;;;;3.35;1.75;;;28.30;99.90;;;;;;4161196;28;20050;-66
2021/09/05 01:28:31;;;;;;;8.95;2.10;;;28.30;99.90;;;;;;4161748;28;20054;-65
2021/09/05 01:30:48;;;;;;;4.20;1.70;;;28.30;99.90;;;;;;4162209;28;20052;-66
2021/09/05 01:33:15;;;;;;;4.13;2.10;;;28.30;99.90;;;;;;4163467;28;20336;-65
2021/09/05 01:35:59;;;;;;;3.35;1.80;;;28.30;99.90;;;;;;4163595;28;20060;-65
2021/09/05 01:38:19;;;;;;;3.45;2.03;;;28.30;99.90;;;;;;4175418;28;20049;-67
2021/09/05 01:40:43;;;;;;;2.85;1.92;;;28.30;99.90;;;;;;4161114;28;20041;-66
2021/09/05 01:43:01;;;;;;;5.72;2.00;;;28.30;99.90;;;;;;4161341;28;20069;-66
2021/09/05 01:45:29;;;;;;;3.00;1.70;;;28.30;99.90;;;;;;4160148;28;20088;-66
2021/09/05 01:48:17;;;;;;;3.67;2.15;;;28.30;99.90;;;;;;4128468;28;20129;-66
2021/09/05 01:51:01;;;;;;;6.72;1.95;;;28.40;99.90;;;;;;4127777;28;20623;-66
2021/09/05 01:54:02;;;;;;;7.57;1.60;;;28.40;99.90;;;;;;4114173;28;20521;-66
2021/09/05 01:56:30;;;;;;;7.65;1.50;;;28.50;99.90;;;;;;4085089;28;20207;-66
2021/09/05 01:58:49;;;;;;;1.83;1.50;;;28.60;99.90;;;;;;4083217;28;20063;-66
2021/09/05 02:01:26;;;;;;;3.03;1.80;;;28.70;99.90;;;;;;4064728;29;20055;-66
2021/09/05 02:04:06;;;;;;;2.70;1.70;;;28.60;99.90;;;;;;4055318;29;20048;-66
2021/09/05 02:06:23;;;;;;;5.78;1.77;;;28.60;99.90;;;;;;4057994;29;20044;-66
2021/09/05 02:09:03;;;;;;;2.30;1.60;;;28.60;99.90;;;;;;4057503;29;20573;-66
2021/09/05 02:11:39;;;;;;;2.45;1.58;;;28.60;99.90;;;;;;4018374;29;20057;-66
2021/09/05 02:14:23;;;;;;;2.67;2.20;;;28.70;99.90;;;;;;4015933;29;20130;-66
2021/09/05 02:16:45;;;;;;;3.25;1.80;;;28.70;99.90;;;;;;3987338;29;20063;-66
2021/09/05 02:19:09;;;;;;;3.97;1.50;;;28.70;99.90;;;;;;3990435;29;20080;-66
2021/09/05 02:21:36;;;;;;;3.15;1.50;;;28.70;99.90;;;;;;4016414;29;20278;-66
2021/09/05 02:24:00;;;;;;;3.20;1.52;;;28.80;99.90;;;;;;4017169;29;20054;-66
2021/09/05 02:26:24;;;;;;;2.30;1.38;;;28.80;99.90;;;;;;4001751;29;20060;-65
2021/09/05 02:28:41;;;;;;;3.35;1.60;;;28.90;99.90;;;;;;4031206;29;20041;-66
2021/09/05 02:31:05;;;;;;;4.28;1.90;;;28.90;99.90;;;;;;4051084;29;20108;-66
2021/09/05 02:33:22;;;;;;;3.28;1.30;;;29.00;99.90;;;;;;4050444;29;20520;-66
2021/09/05 02:35:46;;;;;;;3.60;1.55;;;29.00;99.90;;;;;;4076536;29;20097;-66
2021/09/05 02:38:10;;;;;;;3.03;1.17;;;29.00;99.90;;;;;;4093494;29;20066;-66
2021/09/05 02:40:34;;;;;;;2.30;1.35;;;29.10;99.90;;;;;;4092533;29;20083;-66
2021/09/05 02:42:51;;;;;;;7.40;1.45;;;29.20;99.90;;;;;;4093928;29;20560;-62
2021/09/05 02:45:15;;;;;;;2.20;1.30;;;29.20;99.90;;;;;;4090979;29;20071;-63
2021/09/05 02:47:20;;;;;;;5.05;1.50;;;29.20;99.90;;;;;;4084993;29;20122;-67
2021/09/05 02:49:43;;;;;;;5.15;1.40;;;29.20;99.90;;;;;;4158943;28;20145;-67
2021/09/05 02:52:09;;;;;;;5.40;1.48;;;29.10;99.90;;;;;;4163487;28;20060;-67
2021/09/05 02:54:39;;;;;;;2.00;1.20;;;29.20;99.90;;;;;;4154674;28;20123;-67
2021/09/05 02:56:56;;;;;;;2.17;1.30;;;29.30;99.90;;;;;;4157688;28;20049;-67
2021/09/05 02:59:21;;;;;;;3.53;1.33;;;29.30;99.90;;;;;;4163122;28;20519;-67
2021/09/05 03:01:45;;;;;;;4.63;1.42;;;29.40;99.90;;;;;;4155670;28;20447;-67
2021/09/05 03:04:08;;;;;;;3.50;1.10;;;29.50;99.90;;;;;;4161912;28;20446;-67
2021/09/05 03:06:32;;;;;;;5.40;1.63;;;29.50;99.90;;;;;;4163319;28;20068;-67
2021/09/05 03:09:00;;;;;;;3.35;1.70;;;29.60;99.90;;;;;;4162747;28;20050;-67
2021/09/05 03:11:17;;;;;;;3.15;1.77;;;29.70;99.90;;;;;;4162450;28;20053;-67
2021/09/05 03:13:45;;;;;;;6.30;1.88;;;29.80;99.90;;;;;;4144189;28;20123;-67
2021/09/05 03:16:09;;;;;;;2.08;1.30;;;29.80;99.90;;;;;;4127538;28;20052;-67
2021/09/05 03:18:33;;;;;;;3.42;1.50;;;30.00;99.90;;;;;;4128188;28;20089;-67
2021/09/05 03:20:57;;;;;;;4.43;1.50;;;30.00;99.90;;;;;;4126382;28;20054;-67
2021/09/05 03:23:23;;;;;;;3.08;1.60;;;30.00;99.90;;;;;;4124971;28;20404;-67
2021/09/05 03:25:46;;;;;;;2.85;1.42;;;30.10;99.90;;;;;;4111116;28;20598;-67
2021/09/05 03:28:04;;;;;;;2.75;1.40;;;30.10;99.90;;;;;;4109904;28;20057;-67
2021/09/05 03:30:50;;;;;;;5.32;1.70;;;30.00;99.90;;;;;;4098637;28;20058;-67
2021/09/05 03:33:15;;;;;;;3.10;1.20;;;29.90;99.90;;;;;;4095352;29;20146;-67
2021/09/05 03:35:46;;;;;;;4.80;1.15;;;30.10;99.90;;;;;;4079368;29;20526;-67
2021/09/05 03:38:02;;;;;;;3.83;1.50;;;30.10;99.90;;;;;;4073283;29;20062;-67
2021/09/05 03:40:19;;;;;;;2.28;1.40;;;30.20;99.90;;;;;;4078295;29;20514;-67
2021/09/05 03:42:33;;;;;;;3.03;1.33;;;30.20;99.90;;;;;;4079654;29;20051;-67
2021/09/05 03:44:57;;;;;;;3.85;1.30;;;30.30;99.90;;;;;;4086904;29;20506;-67
2021/09/05 03:47:16;;;;;;;2.28;1.50;;;30.30;99.90;;;;;;4101540;28;20038;-67
2021/09/05 03:49:40;;;;;;;2.95;1.42;;;30.30;99.90;;;;;;4111521;28;20046;-67
2021/09/05 03:52:04;;;;;;;1.50;1.00;;;30.40;99.90;;;;;;4095202;29;20178;-67
2021/09/05 03:54:55;;;;;;;3.63;1.33;;;30.50;99.90;;;;;;4045597;29;20049;-67
2021/09/05 03:57:21;;;;;;;2.28;0.95;;;30.50;99.90;;;;;;4039670;29;20060;-68
2021/09/05 03:59:26;;;;;;;3.17;1.33;;;30.60;99.90;;;;;;4031325;29;20125;-68
2021/09/05 04:01:35;;;;;;;3.35;1.40;;;30.60;99.90;;;;;;4004955;29;20060;-68
2021/09/05 04:04:22;;;;;;;3.45;1.48;;;30.70;99.90;;;;;;4020929;29;20472;-68
2021/09/05 04:06:50;;;;;;;4.13;1.63;;;30.60;99.90;;;;;;4037707;29;20343;-68
2021/09/05 04:12:34;;;;;;;2.47;1.25;;;30.70;99.90;;;;;;3999038;29;20072;-68
2021/09/05 04:14:38;;;;;;;1.77;1.05;;;30.70;99.90;;;;;;3997459;29;20070;-68
2021/09/05 04:16:52;;;;;;;2.03;1.23;;;30.70;99.90;;;;;;4000392;29;20041;-68
2021/09/05 04:18:58;;;;;;;1.75;1.15;;;30.80;99.90;;;;;;4002382;29;20132;-68
2021/09/05 04:21:06;;;;;;;3.03;1.13;;;30.90;99.90;;;;;;4001717;29;20054;-68
2021/09/05 04:23:13;;;;;;;2.17;1.08;;;31.00;99.90;;;;;;3999319;29;20050;-68
2021/09/05 04:25:18;;;;;;;1.90;1.10;;;31.00;99.90;;;;;;3998632;29;20119;-68
2021/09/05 04:27:22;;;;;;;3.17;1.33;;;31.10;99.90;;;;;;3998970;29;20057;-68
2021/09/05 04:29:33;;;;;;;3.00;1.05;;;31.20;99.90;;;;;;3996885;29;20421;-68
2021/09/05 04:31:40;;;;;;;4.38;1.30;;;31.20;99.90;;;;;;3999065;29;20049;-68
2021/09/05 04:33:48;;;;;;;4.00;1.20;;;31.10;99.90;;;;;;3999430;29;20053;-68
2021/09/05 04:36:12;;;;;;;2.60;1.30;;;31.10;99.90;;;;;;4029683;29;20077;-68
2021/09/05 04:38:16;;;;;;;2.28;1.08;;;31.00;99.90;;;;;;4034247;29;20484;-68
2021/09/05 04:40:41;;;;;;;3.78;1.58;;;31.00;99.90;;;;;;4048499;29;20056;-67
2021/09/05 04:42:49;;;;;;;3.92;1.77;;;31.00;99.90;;;;;;4051232;29;20065;-68
2021/09/05 04:44:54;;;;;;;4.35;1.40;;;31.00;99.90;;;;;;4047502;29;20052;-68
2021/09/05 04:47:02;;;;;;;2.15;1.27;;;30.70;99.90;;;;;;4047316;29;20205;-68
2021/09/05 04:49:21;;;;;;;3.38;1.20;;;30.70;99.90;;;;;;4017185;29;20050;-69
2021/09/05 04:51:26;;;;;;;2.10;1.23;;;30.70;99.90;;;;;;4016681;29;20054;-68
2021/09/05 04:53:51;;;;;;;2.83;1.35;;;30.90;99.90;;;;;;4037569;29;20053;-68
2021/09/05 04:55:59;;;;;;;3.97;1.15;;;31.00;99.90;;;;;;4046011;29;20052;-68
2021/09/05 04:58:04;;;;;;;5.05;1.30;;;31.00;99.90;;;;;;4069048;29;20058;-68
2021/09/05 05:00:24;;;;;;;3.03;1.20;;;31.00;99.90;;;;;;4055523;29;20076;-68
2021/09/05 05:02:33;;;;;;;1.90;1.00;;;30.90;99.90;;;;;;4054166;29;20121;-68
2021/09/05 05:04:38;;;;;;;2.97;1.02;;;30.90;99.90;;;;;;4052774;29;20048;-68
2021/09/05 05:06:50;;;;;;;2.35;0.90;;;30.90;99.90;;;;;;4046710;29;20064;-63
2021/09/05 05:09:01;;;;;;;8.77;1.10;;;31.00;99.90;;;;;;4044457;29;20124;-69
2021/09/05 05:11:16;;;;;;;4.72;1.05;;;31.00;99.90;;;;;;4044216;29;20056;-69
2021/09/05 05:13:20;;;;;;;3.35;1.10;;;30.90;99.90;;;;;;4045887;29;20052;-67
2021/09/05 05:15:28;;;;;;;2.53;0.90;;;31.10;99.90;;;;;;4032252;29;20067;-67
2021/09/05 05:17:33;;;;;;;1.80;1.10;;;31.10;99.90;;;;;;4032740;29;20453;-68
2021/09/05 05:19:49;;;;;;;3.58;1.17;;;31.20;99.90;;;;;;4030973;29;20161;-68
2021/09/05 05:22:03;;;;;;;1.45;1.00;;;31.20;99.90;;;;;;4030463;29;20049;-68
2021/09/05 05:24:07;;;;;;;2.38;1.00;;;31.10;99.90;;;;;;4035486;29;20124;-69
2021/09/05 05:26:12;;;;;;;1.83;0.90;;;31.10;99.90;;;;;;4041187;29;20093;-69
2021/09/05 05:28:17;;;;;;;1.75;1.00;;;31.10;99.90;;;;;;4095777;28;20138;-69
2021/09/05 05:30:25;;;;;;;2.53;1.00;;;31.10;99.90;;;;;;4102871;28;20137;-68
2021/09/05 05:32:36;;;;;;;3.00;0.90;;;31.10;99.90;;;;;;4097908;28;20043;-69
2021/09/05 05:34:40;;;;;;;1.42;0.80;;;31.20;99.90;;;;;;4098961;28;20406;-69
2021/09/05 05:36:45;;;;;;;2.35;0.80;;;31.20;99.90;;;;;;4097855;28;20518;-68
2021/09/05 05:38:56;;;;;;;3.83;0.80;;;31.20;99.90;;;;;;4157371;28;20586;-69
2021/09/05 05:41:01;;;;;;;1.65;0.70;;;31.30;99.90;;;;;;4160073;28;20061;-69
2021/09/05 05:43:08;;;;;;;2.90;0.73;;;31.20;99.90;;;;;;4160199;28;20044;-69
2021/09/05 05:45:19;;;;;;;2.75;0.75;;;31.20;99.90;;;;;;4158581;28;20044;-69
2021/09/05 05:47:28;;;;;;;2.88;0.70;;;31.10;99.90;;;;;;4160083;28;20517;-69
2021/09/05 05:49:38;;;;;;;1.73;0.80;;;31.10;99.90;;;;;;4150772;28;20422;-68
2021/09/05 05:52:05;;;;;;;1.67;0.80;;;31.20;99.90;;;;;;4124219;28;20050;-68
2021/09/05 05:54:15;;;;;;;0.70;0.60;;;31.20;99.90;;;;;;4123427;28;20054;-67
2021/09/05 05:56:43;;;;;;;1.58;0.50;;;31.10;99.90;;;;;;4125108;28;20101;-68
2021/09/05 05:59:10;;;;;;;1.02;0.70;;;31.00;99.90;;;;;;4104349;28;20055;-68
2021/09/05 06:01:43;;;;;;;2.22;0.90;;;31.10;99.90;;;;;;4101125;28;20553;-66
2021/09/05 06:03:52;;;;;;;3.38;1.00;;;31.20;99.90;;;;;;4083873;29;20047;-67
2021/09/05 06:05:56;;;;;;;2.83;0.85;;;31.20;99.90;;;;;;4082933;29;20044;-67
2021/09/05 06:08:04;;;;;;;4.53;0.93;;;31.30;99.90;;;;;;4084007;29;20039;-67
2021/09/05 06:10:10;;;;;;;3.08;1.10;;;31.20;99.90;;;;;;4083328;29;20067;-67
2021/09/05 06:12:18;;;;;;;4.50;0.98;;;31.20;99.90;;;;;;4086432;29;20438;-67
2021/09/05 06:14:24;;;;;;;2.00;0.82;;;31.20;99.90;;;;;;4085345;29;20048;-67
2021/09/05 06:16:32;;;;;;;1.13;0.70;;;31.10;99.90;;;;;;4080600;29;20059;-66
2021/09/05 06:19:12;;;;;;;3.20;0.80;;;30.90;99.90;;;;;;4078227;29;20058;-66
2021/09/05 06:21:43;;;;;;;3.20;1.10;;;30.90;99.90;;;;;;4093594;28;20066;-67
2021/09/05 06:24:08;;;;;;;3.05;1.20;;;30.80;99.90;;;;;;4094497;28;20050;-67
2021/09/05 06:26:29;;;;;;;4.70;1.60;;;30.70;99.90;;;;;;4009046;29;20116;-67
2021/09/05 06:28:38;;;;;;;3.08;1.23;;;30.70;99.90;;;;;;4011295;29;20061;-67
2021/09/05 06:31:05;;;;;;;3.35;0.70;;;30.70;99.90;;;;;;4033170;29;20116;-67
2021/09/05 06:33:12;;;;;;;5.95;1.90;;;30.50;99.90;;;;;;4031007;29;20048;-67
2021/09/05 06:35:44;;;;;;;2.20;0.93;;;30.70;99.90;;;;;;4037091;29;20099;-67
2021/09/05 06:38:02;;;;;;;1.83;0.90;;;30.60;99.90;;;;;;3994784;29;20053;-67
2021/09/05 06:40:26;;;;;;;2.42;0.98;;;30.60;99.90;;;;;;3992409;29;20506;-67
2021/09/05 06:42:49;;;;;;;1.60;0.70;;;30.60;99.90;;;;;;3948534;30;20480;-67
2021/09/05 06:45:19;;;;;;;2.38;0.90;;;30.80;99.90;;;;;;3950788;30;20086;-67
2021/09/05 06:47:24;;;;;;;3.17;1.00;;;30.80;99.90;;;;;;3947142;30;20090;-68
2021/09/05 06:49:29;;;;;;;2.55;0.73;;;30.70;99.90;;;;;;3949948;30;20507;-67
2021/09/05 06:51:35;;;;;;;2.45;0.60;;;30.70;99.90;;;;;;3947608;30;20055;-67
2021/09/05 06:53:44;;;;;;;1.35;0.70;;;30.60;99.90;;;;;;3928455;30;20056;-67
2021/09/05 06:55:55;;;;;;;1.80;0.60;;;30.50;99.90;;;;;;3929888;30;20063;-67
2021/09/05 06:58:04;;;;;;;;;;;30.50;99.90;;;;;;3953833;29;20079;-67
2021/09/05 07:00:29;;;;;;;4.25;0.73;;;30.50;99.90;;;;;;3960793;29;19951;-67
2021/09/05 07:02:52;;;;;;;;;;;30.60;99.90;;;;;;3995729;29;20590;-67
2021/09/05 07:05:03;;;;;;;2.85;0.90;;;30.60;99.90;;;;;;4010279;29;19928;-67
2021/09/05 07:07:18;;;;;;;3.85;1.00;;;30.60;99.90;;;;;;4022753;29;20048;-67
2021/09/05 07:09:26;;;;;;;2.22;0.88;;;30.70;99.90;;;;;;4031906;29;20049;-67
2021/09/05 07:11:34;;;;;;;2.10;0.70;;;30.40;99.90;;;;;;4030037;29;20049;-69
2021/09/05 07:14:10;;;;;;;2.28;0.60;;;30.50;99.90;;;;;;4030141;29;20063;-69
2021/09/05 07:16:37;;;;;;;1.98;0.70;;;30.50;99.90;;;;;;4072753;29;20120;-69
2021/09/05 07:18:45;;;;;;;4.35;0.98;;;30.60;99.90;;;;;;4108443;28;20047;-70
2021/09/05 07:20:53;;;;;;;1.77;0.93;;;30.60;99.90;;;;;;4153279;28;20069;-69
2021/09/05 07:23:28;;;;;;;4.18;0.75;;;30.50;99.90;;;;;;4135329;28;20069;-69
2021/09/05 07:25:42;;;;;;;3.58;0.85;;;30.40;99.90;;;;;;4134528;28;20042;-68
2021/09/05 07:28:26;;;;;;;3.45;0.90;;;30.40;99.90;;;;;;4134171;28;20050;-69
2021/09/05 07:30:46;;;;;;;2.22;0.60;;;30.50;99.90;;;;;;4047483;29;20412;-69
2021/09/05 07:32:54;;;;;;;3.10;0.70;;;30.60;99.90;;;;;;4044420;29;20504;-66
2021/09/05 07:35:18;;;;;;;2.17;0.93;;;30.70;99.90;;;;;;4031316;29;20048;-67
2021/09/05 07:37:35;;;;;;;1.98;0.80;;;30.40;99.90;;;;;;4028758;29;20195;-67
2021/09/05 07:39:43;;;;;;;2.85;0.90;;;30.30;99.90;;;;;;4028519;29;20245;-68
2021/09/05 07:42:27;;;;;;;1.63;0.93;;;30.20;99.90;;;;;;4060076;29;20113;-67
2021/09/05 07:44:38;;;;;;;3.60;0.75;;;30.20;99.90;;;;;;4032162;29;20073;-67
2021/09/05 07:46:44;;;;;;;2.40;0.90;;;30.30;99.90;;;;;;4031978;29;20473;-67
2021/09/05 07:48:48;;;;;;;3.50;0.70;;;30.30;99.90;;;;;;4048290;29;20069;-67
2021/09/05 07:51:13;;;;;;;2.33;0.77;;;30.40;99.90;;;;;;4015718;29;20710;-69
2021/09/05 07:53:20;;;;;;;2.03;0.88;;;30.30;99.90;;;;;;4016300;29;20539;-67
2021/09/05 07:55:56;;;;;;;1.55;0.98;;;30.20;99.90;;;;;;4015551;29;20168;-67
2021/09/05 07:58:01;;;;;;;;;;;30.30;99.90;;;;;;4001121;29;20068;-67
2021/09/05 08:00:18;;;;;;;1.70;1.02;;;30.20;99.90;;;;;;4000810;29;20413;-66
2021/09/05 08:02:28;;;;;;;1.92;0.90;;;30.10;99.90;;;;;;4014862;29;20149;-66
2021/09/05 08:04:36;;;;;;;1.33;0.90;;;30.10;99.90;;;;;;4015999;29;20049;-66
2021/09/05 08:06:41;;;;;;;4.18;0.85;;;30.20;99.90;;;;;;4015954;29;20042;-67
2021/09/05 08:09:05;;;;;;;2.60;0.80;;;30.10;99.90;;;;;;4057595;29;20048;-66
2021/09/05 08:11:14;;;;;;;1.77;0.90;;;30.10;99.90;;;;;;4093730;28;20110;-66
2021/09/05 08:13:18;;;;;;;2.90;1.02;;;30.10;99.90;;;;;;4094185;28;20050;-66
2021/09/05 08:15:29;;;;;;;2.03;1.20;;;30.10;99.90;;;;;;4105014;28;20038;-66
2021/09/05 08:17:34;;;;;;;4.88;1.23;;;30.20;99.90;;;;;;4126064;28;20141;-66
2021/09/05 08:19:39;;;;;;;2.00;1.00;;;30.20;99.90;;;;;;4128852;28;20580;-66
2021/09/05 08:21:54;;;;;;;4.63;1.20;;;30.10;99.90;;;;;;4123890;28;20049;-66
2021/09/05 08:24:12;;;;;;;1.77;1.20;;;30.00;99.90;;;;;;4122669;28;20526;-66
2021/09/05 08:26:42;;;;;;;3.92;1.42;;;30.00;99.90;;;;;;4043473;29;20059;-66
2021/09/05 08:28:46;;;;;;;3.20;1.35;;;30.00;99.90;;;;;;4055324;29;20118;-66
2021/09/05 08:31:13;;;;;;;3.13;1.38;;;30.00;99.90;;;;;;4088675;29;20044;-67
2021/09/05 08:33:21;;;;;;;4.20;1.30;;;30.00;99.90;;;;;;4058948;29;20133;-66
2021/09/05 08:35:31;;;;;;;1.40;1.10;;;30.10;99.90;;;;;;4061723;29;20063;-67
2021/09/05 08:37:45;;;;;;;2.75;1.15;;;30.00;99.90;;;;;;4060048;29;20553;-66
2021/09/05 08:39:50;;;;;;;3.40;0.95;;;29.90;99.90;;;;;;4060400;29;20309;-67
2021/09/05 08:42:02;;;;;;;3.25;1.27;;;29.80;99.90;;;;;;4061307;29;20098;-67
2021/09/05 08:44:09;;;;;;;1.90;1.02;;;30.00;99.90;;;;;;4059818;29;20052;-66
2021/09/05 08:46:43;;;;;;;4.32;1.42;;;30.00;99.90;;;;;;4073915;29;20054;-66
2021/09/05 08:48:54;;;;;;;2.75;1.30;;;30.10;99.90;;;;;;4075101;29;20493;-66
2021/09/05 08:51:06;;;;;;;2.92;1.25;;;30.10;99.90;;;;;;4044020;29;20048;-66
2021/09/05 08:53:17;;;;;;;5.60;1.38;;;30.20;99.90;;;;;;4075226;29;20178;-66
2021/09/05 08:55:25;;;;;;;2.83;1.20;;;30.10;99.90;;;;;;4073932;29;20131;-66
2021/09/05 08:57:52;;;;;;;5.47;1.73;;;30.20;99.90;;;;;;4073008;29;20074;-67
2021/09/05 08:59:59;;;;;;;6.20;1.50;;;30.10;99.90;;;;;;4074621;29;20043;-67
2021/09/05 09:02:19;;;;;;;4.25;1.90;;;30.00;99.90;;;;;;4073107;29;20058;-67
2021/09/05 09:04:40;;;;;;;4.65;1.50;;;30.10;99.90;;;;;;4106000;28;20096;-67
2021/09/05 09:06:45;;;;;;;3.35;1.45;;;30.00;99.90;;;;;;4113824;28;20098;-67
2021/09/05 09:09:03;;;;;;;2.80;1.50;;;30.00;99.90;;;;;;4115641;28;20141;-67
2021/09/05 09:11:08;;;;;;;2.92;1.30;;;29.90;99.90;;;;;;4127734;28;20076;-66
2021/09/05 09:13:30;;;;;;;3.17;1.13;;;29.90;99.90;;;;;;4122285;28;20050;-67
2021/09/05 09:15:35;;;;;;;3.10;1.30;;;29.90;99.90;;;;;;4135712;28;20176;-68
2021/09/05 09:17:39;;;;;;;1.77;1.10;;;29.80;99.90;;;;;;4143172;28;20385;-67
2021/09/05 09:19:45;;;;;;;6.07;1.35;;;29.80;99.90;;;;;;4156805;28;20076;-67
2021/09/05 09:21:49;;;;;;;5.05;1.95;;;29.90;99.90;;;;;;4156699;28;20061;-67
2021/09/05 09:23:53;;;;;;;3.03;1.83;;;29.90;99.90;;;;;;4156606;28;20133;-67
2021/09/05 09:26:03;;;;;;;3.63;1.33;;;29.80;99.90;;;;;;4155161;28;20404;-68
2021/09/05 09:28:23;;;;;;;4.32;1.60;;;29.80;99.90;;;;;;4156619;28;20124;-68
2021/09/05 09:30:37;;;;;;;4.35;2.15;;;29.80;99.90;;;;;;4158964;28;20057;-68
2021/09/05 09:32:50;;;;;;;5.25;2.00;;;29.80;99.90;;;;;;4158513;28;20049;-68
2021/09/05 09:35:00;;;;;;;4.95;1.90;;;29.80;99.90;;;;;;4158170;28;20072;-67
2021/09/05 09:37:09;;;;;;;2.95;1.30;;;29.90;99.90;;;;;;4159716;28;20111;-67
2021/09/05 09:39:15;;;;;;;2.38;1.60;;;29.80;99.90;;;;;;4157017;28;20091;-67
2021/09/05 09:41:19;;;;;;;4.55;1.67;;;29.70;99.90;;;;;;4157122;28;20543;-67
2021/09/05 09:43:24;;;;;;;7.30;2.03;;;29.80;99.90;;;;;;4158276;28;20512;-67
2021/09/05 09:45:29;;;;;;;5.72;2.38;;;30.00;99.90;;;;;;4159370;28;20045;-68
2021/09/05 09:47:46;;;;;;;5.10;1.73;;;30.00;99.90;;;;;;4159410;28;20459;-67
2021/09/05 09:49:51;;;;;;;4.22;1.80;;;30.00;99.90;;;;;;4159724;28;20046;-67
2021/09/05 09:52:00;;;;;;;3.95;1.55;;;30.00;99.90;;;;;;4158917;28;20046;-68
2021/09/05 09:54:06;;;;;;;3.25;1.20;;;29.90;99.90;;;;;;4159120;28;20125;-67
2021/09/05 09:56:16;;;;;;;5.45;1.50;;;29.80;99.90;;;;;;4157473;28;20555;-67
2021/09/05 09:58:22;;;;;;;5.03;1.50;;;29.80;99.90;;;;;;4157891;28;20060;-68
2021/09/05 10:00:27;;;;;;;2.80;1.48;;;29.80;99.90;;;;;;4158733;28;20186;-68
2021/09/05 10:02:33;;;;;;;5.63;1.90;;;29.70;99.90;;;;;;4156896;28;20057;-68
2021/09/05 10:04:38;;;;;;;6.30;1.92;;;29.70;99.90;;;;;;4158275;28;20575;-68
2021/09/05 10:06:42;;;;;;;4.00;1.60;;;29.70;99.90;;;;;;4159116;28;20033;-68
2021/09/05 10:08:47;;;;;;;5.22;1.48;;;29.80;99.90;;;;;;4158607;28;20068;-67
2021/09/05 10:10:52;;;;;;;3.88;1.40;;;29.70;99.90;;;;;;4158134;28;20141;-67
2021/09/05 10:12:56;;;;;;;3.13;1.23;;;29.70;99.90;;;;;;4159307;28;20484;-67
2021/09/05 10:15:00;;;;;;;3.75;1.67;;;29.70;99.90;;;;;;4157967;28;20045;-67
2021/09/05 10:17:07;;;;;;;4.07;2.10;;;29.80;99.90;;;;;;4159173;28;20053;-67
2021/09/05 10:19:11;;;;;;;6.05;3.13;;;29.90;99.90;;;;;;4159109;28;20080;-67
2021/09/05 10:21:17;;;;;;;6.57;2.42;;;30.00;99.90;;;;;;4158392;28;20115;-67
2021/09/05 10:23:29;;;;;;;8.10;2.30;;;30.00;99.90;;;;;;4158760;28;20180;-67
2021/09/05 10:25:36;;;;;;;4.38;3.28;;;30.00;99.90;;;;;;4156945;28;20041;-66
2021/09/05 10:27:43;;;;;;;5.35;2.97;;;30.10;99.90;;;;;;4157454;28;20329;-67
2021/09/05 10:30:10;;;;;;;11.65;5.00;;;30.10;99.90;;;;;;4158382;28;20077;-67
2021/09/05 10:32:17;;;;;;;14.18;7.68;;;30.10;99.90;;;;;;4159554;28;20135;-67
2021/09/05 10:34:35;;;;;;;20.58;7.93;;;30.00;99.90;;;;;;4160223;28;20116;-66
2021/09/05 10:36:44;;;;;;;20.33;6.60;;;30.00;99.90;;;;;;4163353;28;20042;-66
2021/09/05 10:38:49;;;;;;;21.40;13.93;;;30.10;99.90;;;;;;4163243;28;20050;-66
2021/09/05 10:40:58;;;;;;;28.08;17.90;;;30.10;99.90;;;;;;4162698;28;20044;-67
2021/09/05 10:43:03;;;;;;;29.48;22.13;;;30.10;99.90;;;;;;4162519;28;20129;-67
2021/09/05 10:45:10;;;;;;;25.50;17.45;;;30.00;99.90;;;;;;4162608;28;20041;-66
2021/09/05 10:47:37;;;;;;;18.40;12.82;;;30.00;99.90;;;;;;4159835;28;20604;-67
2021/09/05 10:49:42;;;;;;;11.80;8.07;;;30.00;99.90;;;;;;4162924;28;20041;-67
2021/09/05 10:51:47;;;;;;;12.05;7.57;;;30.00;99.90;;;;;;4162708;28;20087;-68
2021/09/05 10:54:03;;;;;;;10.60;5.57;;;30.00;99.90;;;;;;4158447;28;20049;-63
2021/09/05 10:56:10;;;;;;;13.27;5.68;;;30.00;99.90;;;;;;4162202;28;20041;-65
2021/09/05 10:58:17;;;;;;;9.48;5.47;;;30.00;99.90;;;;;;4160461;28;20128;-64
2021/09/05 11:00:21;;;;;;;8.38;4.28;;;29.90;99.90;;;;;;4158929;28;20060;-67
2021/09/05 11:02:26;;;;;;;7.65;4.40;;;29.80;99.90;;;;;;4157697;28;20053;-67
2021/09/05 11:04:39;;;;;;;9.02;3.70;;;29.70;99.90;;;;;;4161501;28;20053;-67
2021/09/05 11:07:01;;;;;;;5.40;2.70;;;29.60;99.90;;;;;;4160825;28;20041;-67
2021/09/05 11:09:38;;;;;;;4.22;2.05;;;29.50;99.90;;;;;;4155587;28;20128;-67
2021/09/05 11:12:25;;;;;;;6.25;4.50;;;29.60;99.90;;;;;;4155053;28;20512;-66
2021/09/05 11:14:53;;;;;;;7.00;2.95;;;29.60;99.90;;;;;;4154579;28;20052;-66
2021/09/05 11:16:59;;;;;;;7.88;2.95;;;29.60;99.90;;;;;;4159523;28;20045;-67
2021/09/05 11:19:06;;;;;;;10.38;3.22;;;29.50;99.90;;;;;;4158457;28;20045;-66
2021/09/05 11:21:23;;;;;;;6.93;2.17;;;29.40;99.90;;;;;;4155025;28;20050;-66
2021/09/05 11:23:34;;;;;;;5.60;3.30;;;29.40;99.90;;;;;;4155153;28;20447;-66
2021/09/05 11:25:42;;;;;;;5.28;2.95;;;29.40;99.90;;;;;;4155615;28;20107;-66
2021/09/05 11:27:55;;;;;;;6.07;2.85;;;29.40;99.90;;;;;;4157873;28;20042;-66
2021/09/05 11:30:06;;;;;;;5.90;2.97;;;29.40;99.90;;;;;;4157081;28;20330;-67
2021/09/05 11:32:12;;;;;;;9.90;2.90;;;29.40;99.90;;;;;;4158288;28;20049;-65
2021/09/05 11:34:18;;;;;;;5.78;2.60;;;29.50;99.90;;;;;;4157000;28;20500;-66
2021/09/05 11:36:22;;;;;;;6.60;3.00;;;29.40;99.90;;;;;;4156927;28;20552;-66
2021/09/05 11:38:29;;;;;;;5.35;3.38;;;29.20;99.90;;;;;;4158700;28;20041;-66
2021/09/05 11:40:53;;;;;;;6.03;3.03;;;29.20;99.90;;;;;;4157521;28;20057;-66
2021/09/05 11:42:58;;;;;;;7.45;4.13;;;29.20;99.90;;;;;;4157876;28;20051;-66
2021/09/05 11:45:12;;;;;;;5.28;3.17;;;29.40;99.90;;;;;;4159634;28;20323;-65
2021/09/05 11:47:20;;;;;;;6.13;2.53;;;29.50;99.90;;;;;;4160120;28;20042;-65